Time;durP1;ratioP1;P1;durP2;ratioP2;P2;SDS_P1;SDS_P2;PMS_P1;PMS_P2;Temp;Humidity;BMP_temperature;BMP_pressure;BME280_temperature;BME280_humidity;BME280_pressure;Samples;Min_cycle;Max_cycle;Signal;HPM_P1;HPM_P2
2023/02/09 00:01:05;;;;;;;8.95;6.40;;;;;;;-4.07;72.44;104073.03;5070501;28;20038;-78
2023/02/09 00:03:30;;;;;;;6.53;5.93;;;;;;;-4.00;71.78;104064.19;5070149;28;20063;-78
2023/02/09 00:06:00;;;;;;;6.18;4.60;;;;;;;-3.90;71.50;104071.59;5070020;28;20055;-78
2023/02/09 00:08:26;;;;;;;8.45;6.80;;;;;;;-4.01;71.81;104072.56;5069913;28;20186;-78
2023/02/09 00:10:51;;;;;;;4.28;3.88;;;;;;;-4.14;71.98;104055.69;5070066;28;20508;-78
2023/02/09 00:13:22;;;;;;;4.90;4.47;;;;;;;-4.05;71.41;104079.06;5069208;28;20032;-78
2023/02/09 00:15:53;;;;;;;7.07;5.75;;;;;;;-4.15;72.03;104059.00;5069891;28;20392;-78
2023/02/09 00:18:19;;;;;;;8.27;4.15;;;;;;;-4.08;71.50;104070.41;5069704;28;20047;-78
2023/02/09 00:20:44;;;;;;;5.13;4.63;;;;;;;-4.06;71.00;104051.13;5069858;28;20025;-78
2023/02/09 00:23:10;;;;;;;7.13;4.07;;;;;;;-4.00;70.59;104068.38;5086679;28;20469;-78
2023/02/09 00:25:40;;;;;;;4.80;4.07;;;;;;;-4.02;70.63;104070.81;5070007;28;20070;-78
2023/02/09 00:28:05;;;;;;;8.18;5.63;;;;;;;-4.10;71.19;104074.47;5069412;28;20048;-78
2023/02/09 00:30:31;;;;;;;9.68;6.57;;;;;;;-4.38;70.73;104019.56;5069431;28;20031;-78
2023/02/09 00:32:56;;;;;;;4.75;3.78;;;;;;;-4.43;71.42;104014.97;5069438;28;20078;-77
2023/02/09 00:35:22;;;;;;;3.28;2.97;;;;;;;-4.04;70.91;104062.22;5069543;28;20029;-77
2023/02/09 00:37:47;;;;;;;9.15;6.60;;;;;;;-4.17;71.30;104049.56;5052927;28;20454;-78
2023/02/09 00:40:13;;;;;;;4.90;4.30;;;;;;;-4.27;71.60;104032.91;5052797;28;20415;-78
2023/02/09 00:42:38;;;;;;;2.90;2.30;;;;;;;-4.14;71.41;104052.28;5070456;28;20036;-78
2023/02/09 00:45:04;;;;;;;6.18;4.35;;;;;;;-4.23;71.95;104044.97;5086195;28;20028;-78
2023/02/09 00:47:29;;;;;;;3.17;2.90;;;;;;;-4.26;72.50;104048.94;5085870;28;20039;-78
2023/02/09 00:49:55;;;;;;;5.70;5.10;;;;;;;-4.23;72.72;104044.09;5070368;28;20043;-78
2023/02/09 00:52:20;;;;;;;6.60;4.15;;;;;;;-4.14;72.65;104045.56;5070750;28;20032;-78
2023/02/09 00:54:46;;;;;;;5.82;4.72;;;;;;;-4.15;73.04;104048.00;5052749;28;20036;-77
2023/02/09 00:57:11;;;;;;;3.83;3.42;;;;;;;-4.21;73.58;104042.56;5085956;28;20024;-77
2023/02/09 00:59:39;;;;;;;4.32;3.13;;;;;;;-4.11;73.35;104039.84;5070643;28;20032;-78
2023/02/09 01:02:05;;;;;;;4.07;3.67;;;;;;;-4.04;72.97;104035.28;5069454;28;20502;-78
2023/02/09 01:04:30;;;;;;;4.38;3.97;;;;;;;-4.15;72.98;104030.31;5085884;28;20032;-78
2023/02/09 01:06:55;;;;;;;8.00;3.90;;;;;;;-4.06;72.58;104028.38;5069221;28;20524;-78
2023/02/09 01:09:21;;;;;;;4.18;3.78;;;;;;;-4.14;72.21;104016.88;5070739;28;20053;-78
2023/02/09 01:11:46;;;;;;;5.03;4.57;;;;;;;-4.05;72.54;104035.19;5052187;28;20090;-78
2023/02/09 01:14:12;;;;;;;5.43;4.22;;;;;;;-4.15;72.80;104027.78;5069027;28;20407;-77
2023/02/09 01:16:37;;;;;;;4.97;4.40;;;;;;;-4.05;72.50;104030.13;5069220;28;20036;-77
2023/02/09 01:19:03;;;;;;;7.00;3.35;;;;;;;-3.94;72.26;104038.41;5068957;28;20115;-78
2023/02/09 01:21:29;;;;;;;5.65;3.65;;;;;;;-3.96;72.44;104035.78;5086159;28;20033;-78
2023/02/09 01:23:54;;;;;;;5.82;4.38;;;;;;;-3.95;72.10;104026.53;5069189;28;20025;-79
2023/02/09 01:26:20;;;;;;;3.40;3.13;;;;;;;-4.03;72.44;104023.53;5071127;28;20039;-78
2023/02/09 01:28:49;;;;;;;7.80;6.43;;;;;;;-4.09;71.96;104013.00;5089921;28;20025;-77
2023/02/09 01:31:26;;;;;;;3.63;3.25;;;;;;;-3.97;71.97;104033.16;5073173;28;20033;-78
2023/02/09 01:33:53;;;;;;;8.77;4.63;;;;;;;-4.08;71.82;104017.28;5073022;28;20085;-78
2023/02/09 01:36:18;;;;;;;20.35;6.13;;;;;;;-4.17;72.14;104017.56;5072751;28;20446;-77
2023/02/09 01:38:44;;;;;;;3.85;3.10;;;;;;;-4.08;72.28;104024.88;5073033;28;20086;-78
2023/02/09 01:41:09;;;;;;;5.32;4.82;;;;;;;-4.12;72.35;104017.88;5072733;28;20028;-78
2023/02/09 01:43:51;;;;;;;6.53;3.92;;;;;;;-4.06;72.66;104029.25;5089660;28;20036;-79
2023/02/09 01:46:16;;;;;;;11.32;3.80;;;;;;;-4.20;72.87;104004.72;5089673;28;20024;-79
2023/02/09 01:48:42;;;;;;;6.82;4.43;;;;;;;-4.16;73.01;104031.06;5072749;28;20035;-79
2023/02/09 01:51:07;;;;;;;6.90;4.05;;;;;;;-4.32;73.51;104003.06;5055979;28;20032;-79
2023/02/09 01:53:33;;;;;;;6.50;4.90;;;;;;;-4.14;73.68;104009.28;5072975;28;20424;-79
2023/02/09 01:56:02;;;;;;;5.97;4.70;;;;;;;-4.07;73.55;103999.69;5072303;28;20055;-79
2023/02/09 01:58:28;;;;;;;6.30;4.70;;;;;;;-3.96;73.27;104013.03;5089269;28;20170;-78
2023/02/09 02:00:53;;;;;;;3.55;3.28;;;;;;;-4.04;73.31;104001.53;5089369;28;20028;-79
2023/02/09 02:03:21;;;;;;;4.53;4.07;;;;;;;-3.92;73.20;104024.22;5072589;28;20033;-79
2023/02/09 02:05:48;;;;;;;9.63;5.93;;;;;;;-3.98;73.42;104022.16;5055652;28;20020;-78
2023/02/09 02:08:27;;;;;;;5.13;4.00;;;;;;;-4.06;73.17;104005.63;5055497;28;20058;-80
2023/02/09 02:10:52;;;;;;;4.85;3.45;;;;;;;-4.17;71.15;104016.69;5071890;28;20031;-79
2023/02/09 02:13:18;;;;;;;6.30;4.97;;;;;;;-4.23;72.30;104016.28;5055619;28;20041;-79
2023/02/09 02:15:46;;;;;;;4.55;3.80;;;;;;;-4.15;71.97;104003.34;5055519;28;20024;-78
2023/02/09 02:19:04;;;;;;;2.05;1.92;;;;;;;-4.15;72.06;104012.59;5072121;28;20028;-79
2023/02/09 02:21:38;;;;;;;4.10;3.40;;;;;;;-4.45;72.43;103979.47;5051974;28;20037;-79
2023/02/09 02:24:28;;;;;;;5.68;3.42;;;;;;;-4.28;72.56;103987.31;5088228;28;20074;-79
2023/02/09 02:27:01;;;;;;;6.60;4.82;;;;;;;-4.19;72.55;104005.59;5055355;28;20051;-79
2023/02/09 02:29:48;;;;;;;3.38;3.05;;;;;;;-4.06;72.21;104003.09;5055323;28;20120;-79
2023/02/09 02:32:22;;;;;;;1.50;1.40;;;;;;;-4.06;72.21;104008.16;5071845;28;20028;-79
2023/02/09 02:34:57;;;;;;;4.38;2.40;;;;;;;-4.00;72.48;103998.44;5072771;28;20475;-79
2023/02/09 02:37:45;;;;;;;4.93;3.00;;;;;;;-4.05;72.87;104003.19;5087357;28;20028;-79
2023/02/09 02:40:10;;;;;;;4.60;3.03;;;;;;;-4.07;73.10;103997.16;5071428;28;20029;-80
2023/02/09 02:42:51;;;;;;;2.88;2.53;;;;;;;-4.08;72.89;103989.47;5071613;28;20031;-79
2023/02/09 02:45:51;;;;;;;3.03;2.83;;;;;;;-4.19;73.25;103992.97;5072555;28;20499;-79
2023/02/09 02:48:21;;;;;;;2.45;2.25;;;;;;;-4.19;73.91;103996.38;5088394;28;20039;-79
2023/02/09 02:51:24;;;;;;;4.38;3.53;;;;;;;-4.10;73.95;103991.03;5088452;28;20032;-78
2023/02/09 02:53:51;;;;;;;;;;;;;;;-4.07;73.94;103986.16;5060636;28;20430;-78
2023/02/09 02:56:28;;;;;;;3.08;2.83;;;;;;;-4.41;74.55;103962.88;5088429;28;19918;-78
2023/02/09 02:58:55;;;;;;;2.45;2.25;;;;;;;-4.35;73.87;103956.56;5071494;28;20093;-79
2023/02/09 03:01:22;;;;;;;2.10;1.95;;;;;;;-4.21;73.40;103977.69;5071484;28;20036;-80
2023/02/09 03:03:47;;;;;;;3.72;3.42;;;;;;;-4.13;73.57;103985.75;5054606;28;20105;-79
2023/02/09 03:06:13;;;;;;;1.55;1.45;;;;;;;-4.12;73.38;103982.47;5071271;28;20032;-80
2023/02/09 03:08:52;;;;;;;0.70;0.70;;;;;;;-4.26;73.47;103957.94;5054164;28;20040;-79
2023/02/09 03:11:19;;;;;;;3.25;2.20;;;;;;;-4.30;73.36;103966.09;5071269;28;20407;-79
2023/02/09 03:13:58;;;;;;;3.90;3.35;;;;;;;-4.19;73.71;103991.31;5054354;28;20052;-79
2023/02/09 03:16:42;;;;;;;3.88;2.47;;;;;;;-4.26;73.80;103975.63;5087916;28;20035;-79
2023/02/09 03:19:18;;;;;;;3.13;1.35;;;;;;;-4.24;73.71;103981.66;5071085;28;20493;-78
2023/02/09 03:21:57;;;;;;;2.60;2.40;;;;;;;-4.23;73.85;103988.47;5070614;28;20039;-79
2023/02/09 03:24:26;;;;;;;2.30;1.88;;;;;;;-4.22;73.75;103981.00;5070993;28;20107;-78
2023/02/09 03:26:59;;;;;;;3.13;2.63;;;;;;;-4.31;73.29;103960.19;5072087;28;20047;-79
2023/02/09 03:29:25;;;;;;;1.35;1.27;;;;;;;-4.55;73.50;103920.66;5054123;28;20024;-78
2023/02/09 03:31:50;;;;;;;2.00;1.45;;;;;;;-4.27;74.19;103976.41;5070892;28;20037;-79
2023/02/09 03:34:16;;;;;;;1.95;1.70;;;;;;;-4.36;74.22;103980.09;5070544;28;20028;-79
2023/02/09 03:36:42;;;;;;;2.65;2.45;;;;;;;-4.46;74.44;103965.09;5070472;28;20111;-78
2023/02/09 03:39:07;;;;;;;1.92;1.58;;;;;;;-4.53;74.49;103977.22;5070755;28;20054;-79
2023/02/09 03:41:33;;;;;;;2.88;2.15;;;;;;;-4.49;74.96;103979.19;5070944;28;20032;-78
2023/02/09 03:46:42;;;;;;;3.90;1.92;;;;;;;-4.46;74.87;103975.19;5070474;28;20039;-79
2023/02/09 03:49:08;;;;;;;8.32;2.72;;;;;;;-4.49;74.69;103972.47;5086920;28;20028;-79
2023/02/09 03:51:34;;;;;;;2.08;1.52;;;;;;;-4.51;74.17;103958.00;5070035;28;20479;-78
2023/02/09 03:53:59;;;;;;;5.82;2.80;;;;;;;-4.60;74.22;103935.53;5053723;28;20032;-78
2023/02/09 03:56:24;;;;;;;2.53;2.33;;;;;;;-4.61;73.85;103931.25;5087252;28;20032;-80
2023/02/09 03:58:50;;;;;;;2.15;1.83;;;;;;;-4.31;73.32;103966.88;5087048;28;20078;-79
2023/02/09 04:01:16;;;;;;;3.67;3.10;;;;;;;-4.50;74.48;103970.72;5070357;28;20133;-79
2023/02/09 04:03:41;;;;;;;2.35;1.73;;;;;;;-4.49;74.68;103967.44;5086739;28;20029;-79
2023/02/09 04:06:08;;;;;;;1.55;1.27;;;;;;;-4.39;74.02;103962.19;5053063;28;20502;-79
2023/02/09 04:08:34;;;;;;;2.70;2.30;;;;;;;-4.53;74.17;103936.78;5069760;28;20049;-79
2023/02/09 04:10:59;;;;;;;0.98;0.88;;;;;;;-4.39;73.90;103956.28;5053308;28;20392;-79
2023/02/09 04:13:25;;;;;;;3.78;3.45;;;;;;;-4.50;73.76;103937.00;5053300;28;20483;-78
2023/02/09 04:15:51;;;;;;;1.92;1.75;;;;;;;-4.56;73.61;103926.47;5069710;28;20086;-78
2023/02/09 04:18:16;;;;;;;3.78;2.50;;;;;;;-4.42;73.68;103951.91;5053300;28;20021;-78
2023/02/09 04:20:42;;;;;;;3.15;2.25;;;;;;;-4.57;73.53;103930.66;5052831;28;20475;-78
2023/02/09 04:23:07;;;;;;;2.15;1.63;;;;;;;-4.36;73.67;103947.22;5069599;28;20032;-78
2023/02/09 04:25:33;;;;;;;2.75;2.50;;;;;;;-4.38;73.74;103948.78;5069858;28;20024;-78
2023/02/09 04:27:58;;;;;;;1.58;1.48;;;;;;;-4.34;73.40;103953.25;5086553;28;20035;-80
2023/02/09 04:30:23;;;;;;;3.80;2.30;;;;;;;-4.27;72.94;103951.13;5070645;28;20029;-80
2023/02/09 04:32:49;;;;;;;2.65;2.45;;;;;;;-4.44;72.97;103937.38;5067666;28;20518;-81
2023/02/09 04:35:14;;;;;;;6.97;2.30;;;;;;;-4.38;73.32;103958.91;5068955;28;20403;-81
2023/02/09 04:37:40;;;;;;;2.97;2.78;;;;;;;-4.40;73.63;103954.53;5069837;28;20032;-80
2023/02/09 04:40:07;;;;;;;2.72;2.25;;;;;;;-4.37;73.42;103960.63;5069387;28;20044;-80
2023/02/09 04:42:33;;;;;;;2.65;2.42;;;;;;;-4.42;73.39;103945.97;5052451;28;20032;-80
2023/02/09 04:44:58;;;;;;;1.80;1.50;;;;;;;-4.44;73.76;103948.38;5069338;28;20510;-81
2023/02/09 04:47:24;;;;;;;3.05;2.22;;;;;;;-4.55;73.74;103939.22;5068962;28;20029;-80
2023/02/09 04:49:49;;;;;;;3.08;2.85;;;;;;;-4.63;74.17;103925.19;5085658;28;20086;-84
2023/02/09 04:52:15;;;;;;;3.15;2.88;;;;;;;-4.58;73.84;103949.13;5069307;28;20484;-80
2023/02/09 04:54:40;;;;;;;11.25;4.68;;;;;;;-4.56;73.45;103939.13;5069309;28;20090;-79
2023/02/09 04:59:49;;;;;;;3.08;2.88;;;;;;;-4.58;73.57;103928.03;5068016;28;20032;-81
2023/02/09 05:02:16;;;;;;;4.80;4.38;;;;;;;-4.47;73.30;103965.88;5069152;28;20032;-79
2023/02/09 05:04:41;;;;;;;7.63;5.20;;;;;;;-4.40;73.39;103962.97;5068201;28;20025;-79
2023/02/09 05:07:06;;;;;;;7.47;4.47;;;;;;;-4.37;73.54;103963.16;5085073;28;20086;-81
2023/02/09 05:09:32;;;;;;;3.65;3.20;;;;;;;-4.52;73.97;103933.47;5069086;28;20032;-79
2023/02/09 05:11:57;;;;;;;8.57;5.72;;;;;;;-4.28;73.45;103954.44;5066079;28;20491;-81
2023/02/09 05:14:23;;;;;;;5.13;4.63;;;;;;;-4.23;73.39;103948.00;5052266;28;20029;-80
2023/02/09 05:16:48;;;;;;;7.30;6.07;;;;;;;-4.22;73.26;103955.72;5085290;28;20024;-81
2023/02/09 05:19:14;;;;;;;6.50;4.22;;;;;;;-4.12;72.86;103947.06;5068848;28;20032;-93
2023/02/09 05:21:42;;;;;;;10.38;4.53;;;;;;;-4.03;73.05;103965.38;5069983;28;20021;-86
2023/02/09 05:24:07;;;;;;;6.13;4.43;;;;;;;-4.32;73.06;103914.59;5068714;28;20388;-77
2023/02/09 05:26:33;;;;;;;3.10;2.13;;;;;;;-4.01;72.56;103958.75;5069724;28;20514;-86
2023/02/09 05:28:58;;;;;;;3.55;3.25;;;;;;;-4.16;73.10;103947.63;5056838;28;20588;-88
2023/02/09 05:31:24;;;;;;;5.03;4.00;;;;;;;-4.11;73.23;103964.00;5051948;28;20031;-77
2023/02/09 05:33:49;;;;;;;5.80;4.90;;;;;;;-4.07;72.80;103950.75;5085358;28;20040;-86
2023/02/09 05:36:15;;;;;;;5.72;5.00;;;;;;;-4.24;72.66;103936.16;5067983;28;20418;-84
2023/02/09 05:38:40;;;;;;;5.45;3.75;;;;;;;-4.36;72.76;103921.94;5068331;28;20040;-80
2023/02/09 05:41:06;;;;;;;4.10;3.47;;;;;;;-4.15;72.48;103956.97;5068973;28;20040;-81
2023/02/09 05:43:32;;;;;;;6.60;2.33;;;;;;;-4.11;72.51;103969.06;5068499;28;20028;-82
2023/02/09 05:45:58;;;;;;;6.28;4.20;;;;;;;-4.16;72.61;103951.03;5068439;28;20487;-78
2023/02/09 05:48:23;;;;;;;6.03;3.85;;;;;;;-4.10;72.88;103980.91;5068878;28;20101;-78
2023/02/09 05:50:49;;;;;;;4.10;3.72;;;;;;;-4.03;73.17;103978.03;5085128;28;20545;-87
2023/02/09 05:53:14;;;;;;;6.95;3.00;;;;;;;-4.02;73.12;103982.28;5049382;28;20459;-82
2023/02/09 05:55:40;;;;;;;7.65;3.40;;;;;;;-3.94;72.99;103983.63;5067114;28;20056;-87
2023/02/09 05:58:05;;;;;;;7.10;5.90;;;;;;;-3.94;72.92;103990.34;5068025;28;20081;-82
2023/02/09 06:00:31;;;;;;;7.70;5.75;;;;;;;-3.91;72.86;103988.91;5068604;28;20032;-89
2023/02/09 06:02:57;;;;;;;4.22;3.72;;;;;;;-3.82;72.20;103999.63;5051900;28;20514;-89
2023/02/09 06:05:23;;;;;;;7.63;3.38;;;;;;;-3.90;72.29;103990.66;5068508;28;20059;-80
2023/02/09 06:07:49;;;;;;;4.28;3.83;;;;;;;-3.86;72.79;103991.72;5051526;28;20045;-83
2023/02/09 06:10:15;;;;;;;5.32;4.82;;;;;;;-3.85;72.38;103993.47;5051964;28;20039;-79
2023/02/09 06:12:41;;;;;;;5.82;3.85;;;;;;;-3.99;71.45;103959.72;5067041;28;20036;-76
2023/02/09 06:15:07;;;;;;;3.70;3.10;;;;;;;-3.93;71.81;103975.31;5068368;28;20033;-78
2023/02/09 06:17:32;;;;;;;6.28;3.40;;;;;;;-3.78;71.82;103996.50;5067854;28;20040;-77
2023/02/09 06:19:58;;;;;;;5.15;4.15;;;;;;;-4.17;72.05;103930.72;5062969;28;20487;-77
2023/02/09 06:22:23;;;;;;;2.60;2.40;;;;;;;-3.97;72.72;103977.50;5088562;28;20094;-77
2023/02/09 06:24:49;;;;;;;4.97;2.88;;;;;;;-3.85;72.54;103984.22;5088344;28;20032;-79
2023/02/09 06:27:14;;;;;;;3.42;3.10;;;;;;;-3.95;72.35;103951.53;5071860;28;20032;-76
2023/02/09 06:29:39;;;;;;;5.57;4.38;;;;;;;-4.03;71.81;103950.19;5071721;28;20028;-76
2023/02/09 06:32:05;;;;;;;2.88;2.63;;;;;;;-3.93;72.33;103977.81;5071166;28;20545;-77
2023/02/09 06:34:31;;;;;;;3.80;3.47;;;;;;;-3.70;72.35;103996.13;5070606;28;20032;-75
2023/02/09 06:36:56;;;;;;;3.88;3.53;;;;;;;-3.98;72.62;103958.06;5072379;28;20020;-86
2023/02/09 06:39:23;;;;;;;3.72;3.40;;;;;;;-3.79;72.95;103989.69;5070805;28;20083;-79
2023/02/09 06:41:48;;;;;;;4.57;4.05;;;;;;;-3.82;72.27;103981.03;5087876;28;20020;-84
2023/02/09 06:44:14;;;;;;;5.15;1.85;;;;;;;-3.75;72.47;103995.81;5088184;28;20032;-80
2023/02/09 06:46:39;;;;;;;4.65;3.90;;;;;;;-3.80;72.94;103987.94;5071880;28;20032;-82
2023/02/09 06:49:05;;;;;;;6.93;4.10;;;;;;;-3.83;73.02;103980.16;5070777;28;20094;-80
2023/02/09 06:51:30;;;;;;;1.73;1.63;;;;;;;-3.70;72.40;103986.88;5068673;28;20032;-81
2023/02/09 06:53:56;;;;;;;6.13;5.05;;;;;;;-4.02;72.19;103929.19;5040012;28;20107;-78
2023/02/09 06:56:21;;;;;;;4.20;3.83;;;;;;;-3.67;72.13;103994.66;5072694;28;20449;-76
2023/02/09 06:58:47;;;;;;;2.20;2.00;;;;;;;-3.65;72.65;103992.22;5084395;28;20032;-84
2023/02/09 07:01:14;;;;;;;5.68;5.10;;;;;;;-3.89;72.90;103946.00;5088844;28;20040;-86
2023/02/09 07:03:39;;;;;;;1.98;1.85;;;;;;;-3.58;72.08;103982.56;5071467;28;20035;-87
2023/02/09 07:06:10;;;;;;;7.63;4.13;;;;;;;-3.45;72.60;103996.84;5070646;28;20028;-84
2023/02/09 07:08:36;;;;;;;7.70;3.72;;;;;;;-3.39;72.80;103997.25;5053715;28;20052;-87
2023/02/09 07:11:02;;;;;;;3.53;3.25;;;;;;;-3.52;72.55;103977.03;5069644;28;20410;-84
2023/02/09 07:13:28;;;;;;;6.03;4.82;;;;;;;-3.43;72.54;103985.19;5068666;28;20064;-83
2023/02/09 07:15:55;;;;;;;6.30;4.97;;;;;;;-3.29;72.74;103999.56;5073389;28;20174;-81
2023/02/09 07:18:21;;;;;;;5.30;4.22;;;;;;;-3.29;72.56;103999.56;5064593;28;20028;-76
2023/02/09 07:20:59;;;;;;;5.35;4.85;;;;;;;-3.43;72.96;103995.31;5086117;28;20032;-82
2023/02/09 07:23:24;;;;;;;7.32;5.22;;;;;;;-3.39;72.81;103984.59;5089570;28;20032;-81
2023/02/09 07:25:50;;;;;;;6.18;3.60;;;;;;;-3.24;72.75;104003.28;5085129;28;20047;-85
2023/02/09 07:28:15;;;;;;;11.00;6.45;;;;;;;-3.51;73.00;103944.22;5063865;28;20093;-81
2023/02/09 07:30:41;;;;;;;5.10;4.63;;;;;;;-3.10;72.35;103986.38;5090168;28;20024;-80
2023/02/09 07:33:07;;;;;;;5.18;3.67;;;;;;;-2.90;71.68;104002.78;5089791;28;20036;-82
2023/02/09 07:35:32;;;;;;;4.88;3.65;;;;;;;-2.94;71.54;103993.25;5053209;28;20024;-81
2023/02/09 07:37:58;;;;;;;7.25;4.78;;;;;;;-2.78;71.12;104002.63;5069148;28;20537;-79
2023/02/09 07:40:23;;;;;;;5.55;3.97;;;;;;;-2.81;70.35;103985.59;5080719;28;20054;-78
2023/02/09 07:42:52;;;;;;;5.43;3.88;;;;;;;-2.78;69.74;103985.78;5089241;28;20023;-79
2023/02/09 07:45:17;;;;;;;3.90;2.97;;;;;;;-2.77;69.62;103984.97;5091069;28;20062;-79
2023/02/09 07:47:43;;;;;;;3.50;2.97;;;;;;;-3.03;69.79;103973.31;5086668;28;20055;-79
2023/02/09 07:50:08;;;;;;;1.92;1.73;;;;;;;-2.80;69.41;103986.47;5079577;28;20089;-78
2023/02/09 07:52:34;;;;;;;3.83;3.13;;;;;;;-2.73;70.17;103988.59;5080672;28;20515;-88
2023/02/09 07:54:59;;;;;;;6.22;2.97;;;;;;;-2.63;69.92;103970.63;5061074;28;20130;-77
2023/02/09 07:57:26;;;;;;;6.70;4.75;;;;;;;-2.62;69.61;103941.94;5106181;28;20426;-81
2023/02/09 07:59:52;;;;;;;4.20;3.20;;;;;;;-2.26;69.55;103999.00;5089449;28;20107;-82
2023/02/09 08:02:23;;;;;;;5.38;3.40;;;;;;;-2.13;68.94;104001.44;5079244;28;20043;-78
2023/02/09 08:04:48;;;;;;;10.80;6.00;;;;;;;-2.18;68.70;103996.88;5068663;28;20056;-82
2023/02/09 08:07:14;;;;;;;4.82;4.18;;;;;;;-2.29;68.97;103993.72;5085453;28;20028;-78
2023/02/09 08:09:43;;;;;;;4.13;3.30;;;;;;;-2.30;69.49;103997.03;5070318;28;20032;-78
2023/02/09 08:12:09;;;;;;;3.50;3.17;;;;;;;-2.24;68.70;103991.47;5081379;28;20036;-79
2023/02/09 08:14:41;;;;;;;3.78;2.47;;;;;;;-2.28;69.45;103998.00;5068673;28;20083;-82
2023/02/09 08:17:26;;;;;;;3.78;2.38;;;;;;;-2.30;69.34;104007.19;5068767;28;20474;-82
2023/02/09 08:19:58;;;;;;;5.30;4.18;;;;;;;-2.31;68.82;103996.16;5068354;28;20039;-82
2023/02/09 08:22:23;;;;;;;6.75;4.97;;;;;;;-2.39;69.26;103997.38;5076393;28;20028;-79
2023/02/09 08:24:49;;;;;;;6.40;3.75;;;;;;;-2.30;68.58;103999.56;5085517;28;20056;-84
2023/02/09 08:27:14;;;;;;;4.80;3.58;;;;;;;-2.42;68.37;103965.91;5067657;28;20039;-78
2023/02/09 08:29:40;;;;;;;6.03;4.20;;;;;;;-2.20;68.80;104003.53;5068329;28;20125;-79
2023/02/09 08:32:05;;;;;;;6.07;3.85;;;;;;;-2.17;68.13;103996.94;5060429;28;20042;-84
2023/02/09 08:34:31;;;;;;;4.50;3.15;;;;;;;-2.29;68.57;103998.78;5088866;28;20028;-86
2023/02/09 08:36:56;;;;;;;2.88;2.60;;;;;;;-2.19;67.87;103993.47;5088641;28;20395;-83
2023/02/09 08:39:22;;;;;;;4.40;3.17;;;;;;;-2.21;67.94;104015.31;5085690;28;20083;-81
2023/02/09 08:41:47;;;;;;;3.25;2.95;;;;;;;-2.21;66.97;103981.47;5084589;28;20492;-78
2023/02/09 08:44:13;;;;;;;5.68;4.15;;;;;;;-2.51;68.45;103975.53;5068146;28;20047;-86
2023/02/09 08:46:38;;;;;;;5.47;3.85;;;;;;;-2.33;68.51;103999.41;5078277;28;20090;-82
2023/02/09 08:49:04;;;;;;;7.30;4.60;;;;;;;-2.34;67.86;103996.00;5071928;28;20407;-82
2023/02/09 08:51:29;;;;;;;5.25;3.88;;;;;;;-2.25;67.83;103994.78;5071427;28;20101;-84
2023/02/09 08:53:54;;;;;;;3.85;3.13;;;;;;;-2.14;67.67;104004.75;5065985;28;20044;-85
2023/02/09 08:56:20;;;;;;;3.67;3.35;;;;;;;-2.07;67.08;104011.91;5066905;28;20690;-81
2023/02/09 08:58:46;;;;;;;5.43;4.18;;;;;;;-2.02;67.35;104000.38;5082986;28;20034;-82
2023/02/09 09:01:12;;;;;;;5.78;4.15;;;;;;;-1.99;67.02;103992.06;5104759;28;20024;-79
2023/02/09 09:03:37;;;;;;;1.95;1.75;;;;;;;-2.06;66.98;103989.97;5086478;28;20028;-79
2023/02/09 09:06:04;;;;;;;3.90;3.47;;;;;;;-2.07;67.06;103976.38;5089632;28;20039;-79
2023/02/09 09:08:30;;;;;;;3.45;3.10;;;;;;;-1.90;67.54;104009.47;5105327;28;20048;-82
2023/02/09 09:10:55;;;;;;;6.55;5.72;;;;;;;-1.86;67.08;104001.25;5087622;28;20171;-85
2023/02/09 09:13:23;;;;;;;5.60;4.07;;;;;;;-1.77;66.94;104005.19;5070201;28;20070;-90
2023/02/09 09:15:48;;;;;;;4.20;3.58;;;;;;;-1.90;67.32;104000.19;5050525;28;20086;-86
2023/02/09 09:18:14;;;;;;;3.55;2.85;;;;;;;-1.80;67.67;103991.41;5078047;28;20019;-81
2023/02/09 09:20:39;;;;;;;3.10;2.80;;;;;;;-1.59;67.71;104007.84;5088391;28;20081;-81
2023/02/09 09:23:05;;;;;;;3.33;3.03;;;;;;;-1.35;67.01;104020.13;5071760;28;20024;-90
2023/02/09 09:25:31;;;;;;;3.42;3.08;;;;;;;-1.25;66.09;104025.81;5052527;28;20120;-84
2023/02/09 09:27:56;;;;;;;3.47;3.17;;;;;;;-1.20;65.54;104018.41;5053862;28;20111;-84
2023/02/09 09:30:22;;;;;;;3.03;1.88;;;;;;;-1.06;66.07;104022.56;5079033;28;20036;-88
2023/02/09 09:32:47;;;;;;;2.90;2.10;;;;;;;-1.02;65.82;104023.59;5088667;28;20024;-90
2023/02/09 09:35:13;;;;;;;4.00;3.38;;;;;;;-0.89;66.28;104026.84;5087002;28;20036;-90
2023/02/09 09:37:38;;;;;;;5.15;3.30;;;;;;;-0.78;65.46;104003.69;5069490;28;20033;-82
2023/02/09 09:40:04;;;;;;;5.78;4.63;;;;;;;-0.67;65.15;104016.16;5068140;28;20033;-84
2023/02/09 09:42:32;;;;;;;4.05;3.25;;;;;;;-0.47;65.03;104018.84;5068243;28;20029;-83
2023/02/09 09:44:57;;;;;;;4.10;3.60;;;;;;;-0.33;63.79;104010.22;5084219;28;20024;-80
2023/02/09 09:47:41;;;;;;;4.28;2.88;;;;;;;-0.57;64.22;103987.00;5087055;28;20039;-81
2023/02/09 09:50:16;;;;;;;7.10;3.50;;;;;;;-0.41;63.21;104001.31;5071202;28;20032;-84
2023/02/09 09:52:43;;;;;;;2.20;2.03;;;;;;;-0.47;63.22;103976.47;5071989;28;20068;-84
2023/02/09 09:55:16;;;;;;;3.30;3.03;;;;;;;-0.17;64.21;103996.59;5042569;28;20124;-81
2023/02/09 09:57:42;;;;;;;3.55;3.05;;;;;;;-0.13;61.48;104003.56;5072017;28;20029;-82
2023/02/09 10:00:17;;;;;;;2.67;2.33;;;;;;;-0.16;61.71;103996.66;5072249;28;20388;-81
2023/02/09 10:02:43;;;;;;;3.38;1.73;;;;;;;-0.30;60.93;103990.88;5072163;28;20032;-77
2023/02/09 10:05:14;;;;;;;2.05;1.67;;;;;;;-0.40;61.44;103998.00;5070894;28;20024;-85
2023/02/09 10:07:40;;;;;;;7.15;3.13;;;;;;;-0.43;60.40;103998.72;5073059;28;20045;-86
2023/02/09 10:10:44;;;;;;;3.20;2.08;;;;;;;-0.34;60.93;103989.00;5076503;28;20036;-87
2023/02/09 10:13:37;;;;;;;2.10;1.95;;;;;;;-0.27;60.85;103990.19;5068080;28;20041;-88
2023/02/09 10:16:03;;;;;;;4.20;2.78;;;;;;;-0.34;60.79;103988.13;5073170;28;20025;-89
2023/02/09 10:18:29;;;;;;;3.50;3.17;;;;;;;-0.20;61.39;103986.25;5070155;28;20173;-87
2023/02/09 10:21:02;;;;;;;3.38;2.72;;;;;;;-0.12;60.55;103979.88;5060669;28;20027;-87
2023/02/09 10:23:49;;;;;;;3.45;3.15;;;;;;;-0.10;60.61;103968.09;5070719;28;20025;-84
2023/02/09 10:26:21;;;;;;;2.75;2.15;;;;;;;0.09;60.11;103969.84;5085406;28;20032;-80
2023/02/09 10:28:49;;;;;;;3.47;3.00;;;;;;;0.12;60.75;103975.97;5091654;28;20162;-81
2023/02/09 10:31:46;;;;;;;2.38;2.17;;;;;;;0.22;60.02;103977.28;5079632;28;20055;-83
2023/02/09 10:34:48;;;;;;;2.33;2.13;;;;;;;0.32;58.83;103969.28;5101138;28;20028;-84
2023/02/09 10:37:32;;;;;;;3.10;2.35;;;;;;;0.30;60.95;103954.72;5094053;28;20032;-87
2023/02/09 10:40:07;;;;;;;3.95;3.47;;;;;;;0.55;59.51;103972.88;5081057;28;20502;-89
2023/02/09 10:42:34;;;;;;;3.60;2.72;;;;;;;0.55;58.92;103958.47;5072311;28;20051;-84
2023/02/09 10:45:09;;;;;;;3.75;3.35;;;;;;;0.75;58.89;103949.16;5071194;28;20253;-85
2023/02/09 10:47:35;;;;;;;4.47;3.17;;;;;;;0.75;58.59;103936.41;5087074;28;20024;-79
2023/02/09 10:50:18;;;;;;;4.43;3.97;;;;;;;0.81;58.32;103936.69;5069401;28;20025;-78
2023/02/09 10:52:52;;;;;;;;;;;;;;;1.01;57.89;103954.56;5070848;28;20036;-81
2023/02/09 10:55:38;;;;;;;3.85;2.67;;;;;;;0.88;57.76;103932.72;5067577;28;19916;-85
2023/02/09 10:58:07;;;;;;;3.60;3.28;;;;;;;0.90;58.65;103940.47;5089719;28;20078;-84
2023/02/09 11:00:41;;;;;;;7.60;4.45;;;;;;;1.09;58.20;103932.81;5068438;28;20510;-82
2023/02/09 11:03:16;;;;;;;4.20;2.83;;;;;;;1.29;57.58;103920.91;5090771;28;20494;-80
2023/02/09 11:05:42;;;;;;;3.55;3.20;;;;;;;1.41;56.66;103927.38;5071803;28;20029;-78
2023/02/09 11:08:21;;;;;;;3.42;3.13;;;;;;;1.58;56.63;103937.41;5063992;28;20550;-78
2023/02/09 11:10:49;;;;;;;5.57;3.38;;;;;;;1.50;56.85;103937.09;5069727;28;20419;-81
2023/02/09 11:13:21;;;;;;;5.75;5.25;;;;;;;1.48;56.96;103918.31;5070857;28;20043;-82
2023/02/09 11:16:00;;;;;;;3.05;2.65;;;;;;;1.40;56.38;103930.75;5052416;28;20043;-79
2023/02/09 11:18:28;;;;;;;4.78;3.97;;;;;;;1.41;55.63;103927.38;5086573;28;20035;-78
2023/02/09 11:21:36;;;;;;;3.45;3.15;;;;;;;1.23;56.21;103901.09;5090242;28;20045;-80
2023/02/09 11:24:02;;;;;;;3.97;2.45;;;;;;;1.40;57.28;103915.44;5088793;28;20067;-79
2023/02/09 11:26:44;;;;;;;4.68;4.10;;;;;;;1.50;57.20;103915.81;5068777;28;20479;-80
2023/02/09 11:29:28;;;;;;;4.80;3.15;;;;;;;1.74;57.16;103916.78;5083230;28;20020;-78
2023/02/09 11:32:06;;;;;;;3.15;2.83;;;;;;;1.64;56.80;103919.78;5066950;28;20016;-82
2023/02/09 11:34:40;;;;;;;2.13;1.92;;;;;;;1.69;56.01;103916.63;5083164;28;20147;-84
2023/02/09 11:37:26;;;;;;;4.72;3.55;;;;;;;1.82;55.78;103915.41;5070382;28;20499;-81
2023/02/09 11:40:04;;;;;;;5.32;2.83;;;;;;;1.73;55.16;103907.41;5070262;28;20045;-82